sensor_id;sensor_type;location;lat;lon;timestamp;P1;durP1;ratioP1;P2;durP2;ratioP2
10586;SDS011;5341;47.606;7.576;2023-03-01T00:02:02;19.88;;;16.63;;
10586;SDS011;5341;47.606;7.576;2023-03-01T00:04:30;21.23;;;17.42;;
10586;SDS011;5341;47.606;7.576;2023-03-01T00:06:58;20.75;;;17.27;;
10586;SDS011;5341;47.606;7.576;2023-03-01T00:09:27;22.00;;;17.75;;
10586;SDS011;5341;47.606;7.576;2023-03-01T00:11:55;22.10;;;17.00;;
10586;SDS011;5341;47.606;7.576;2023-03-01T00:14:25;20.30;;;16.63;;
10586;SDS011;5341;47.606;7.576;2023-03-01T00:16:52;20.75;;;17.08;;
10586;SDS011;5341;47.606;7.576;2023-03-01T00:19:20;22.33;;;17.27;;
10586;SDS011;5341;47.606;7.576;2023-03-01T00:21:48;20.98;;;16.40;;
10586;SDS011;5341;47.606;7.576;2023-03-01T00:24:16;19.65;;;17.02;;
10586;SDS011;5341;47.606;7.576;2023-03-01T00:26:45;20.40;;;16.42;;
10586;SDS011;5341;47.606;7.576;2023-03-01T00:29:12;18.30;;;15.52;;
10586;SDS011;5341;47.606;7.576;2023-03-01T00:31:40;18.10;;;15.90;;
10586;SDS011;5341;47.606;7.576;2023-03-01T00:34:07;21.35;;;16.50;;
10586;SDS011;5341;47.606;7.576;2023-03-01T00:36:36;18.08;;;15.13;;
10586;SDS011;5341;47.606;7.576;2023-03-01T00:39:05;19.88;;;16.25;;
10586;SDS011;5341;47.606;7.576;2023-03-01T00:41:36;19.08;;;16.08;;
10586;SDS011;5341;47.606;7.576;2023-03-01T00:44:07;19.55;;;16.38;;
10586;SDS011;5341;47.606;7.576;2023-03-01T00:46:34;19.40;;;15.88;;
10586;SDS011;5341;47.606;7.576;2023-03-01T00:49:03;20.10;;;16.17;;
10586;SDS011;5341;47.606;7.576;2023-03-01T00:51:31;20.25;;;16.15;;
10586;SDS011;5341;47.606;7.576;2023-03-01T00:54:00;19.92;;;15.80;;
10586;SDS011;5341;47.606;7.576;2023-03-01T00:56:28;19.70;;;16.08;;
10586;SDS011;5341;47.606;7.576;2023-03-01T00:58:56;18.35;;;15.65;;
10586;SDS011;5341;47.606;7.576;2023-03-01T01:01:26;20.20;;;16.00;;
10586;SDS011;5341;47.606;7.576;2023-03-01T01:03:56;21.23;;;17.33;;
10586;SDS011;5341;47.606;7.576;2023-03-01T01:06:26;19.35;;;15.10;;
10586;SDS011;5341;47.606;7.576;2023-03-01T01:08:56;21.40;;;16.45;;
10586;SDS011;5341;47.606;7.576;2023-03-01T01:11:24;21.25;;;16.75;;
10586;SDS011;5341;47.606;7.576;2023-03-01T01:13:54;21.52;;;16.95;;
10586;SDS011;5341;47.606;7.576;2023-03-01T01:16:23;20.42;;;16.80;;
10586;SDS011;5341;47.606;7.576;2023-03-01T01:18:54;21.05;;;16.85;;
10586;SDS011;5341;47.606;7.576;2023-03-01T01:21:23;19.67;;;16.85;;
10586;SDS011;5341;47.606;7.576;2023-03-01T01:23:52;20.48;;;16.92;;
10586;SDS011;5341;47.606;7.576;2023-03-01T01:26:20;20.55;;;16.50;;
10586;SDS011;5341;47.606;7.576;2023-03-01T01:28:50;18.38;;;15.88;;
10586;SDS011;5341;47.606;7.576;2023-03-01T01:31:18;21.73;;;17.00;;
10586;SDS011;5341;47.606;7.576;2023-03-01T01:33:51;20.45;;;16.35;;
10586;SDS011;5341;47.606;7.576;2023-03-01T01:36:19;19.63;;;16.23;;
10586;SDS011;5341;47.606;7.576;2023-03-01T01:38:47;18.17;;;15.75;;
10586;SDS011;5341;47.606;7.576;2023-03-01T01:41:15;20.83;;;17.02;;
10586;SDS011;5341;47.606;7.576;2023-03-01T01:43:43;22.45;;;16.90;;
10586;SDS011;5341;47.606;7.576;2023-03-01T01:46:15;19.80;;;15.77;;
10586;SDS011;5341;47.606;7.576;2023-03-01T01:48:52;20.75;;;16.20;;
10586;SDS011;5341;47.606;7.576;2023-03-01T01:51:23;18.80;;;16.10;;
10586;SDS011;5341;47.606;7.576;2023-03-01T01:53:55;19.77;;;15.95;;
10586;SDS011;5341;47.606;7.576;2023-03-01T01:56:27;18.48;;;15.45;;
10586;SDS011;5341;47.606;7.576;2023-03-01T01:58:56;18.20;;;15.68;;
10586;SDS011;5341;47.606;7.576;2023-03-01T02:01:24;19.05;;;15.70;;
10586;SDS011;5341;47.606;7.576;2023-03-01T02:03:53;20.52;;;16.23;;
10586;SDS011;5341;47.606;7.576;2023-03-01T02:06:21;20.00;;;16.48;;
10586;SDS011;5341;47.606;7.576;2023-03-01T02:08:55;20.38;;;16.08;;
10586;SDS011;5341;47.606;7.576;2023-03-01T02:11:26;18.23;;;16.00;;
10586;SDS011;5341;47.606;7.576;2023-03-01T02:13:56;19.83;;;16.40;;
10586;SDS011;5341;47.606;7.576;2023-03-01T02:16:23;19.50;;;15.77;;
10586;SDS011;5341;47.606;7.576;2023-03-01T02:18:55;18.98;;;15.80;;
10586;SDS011;5341;47.606;7.576;2023-03-01T02:21:30;20.67;;;16.17;;
10586;SDS011;5341;47.606;7.576;2023-03-01T02:24:07;18.83;;;15.15;;
10586;SDS011;5341;47.606;7.576;2023-03-01T02:26:51;17.27;;;15.10;;
10586;SDS011;5341;47.606;7.576;2023-03-01T02:29:23;19.30;;;15.25;;
10586;SDS011;5341;47.606;7.576;2023-03-01T02:31:51;18.58;;;15.40;;
10586;SDS011;5341;47.606;7.576;2023-03-01T02:34:23;17.80;;;15.00;;
10586;SDS011;5341;47.606;7.576;2023-03-01T02:36:57;18.55;;;15.50;;
10586;SDS011;5341;47.606;7.576;2023-03-01T02:39:31;19.20;;;14.98;;
10586;SDS011;5341;47.606;7.576;2023-03-01T02:42:06;17.90;;;15.07;;
10586;SDS011;5341;47.606;7.576;2023-03-01T02:44:38;18.95;;;15.20;;
10586;SDS011;5341;47.606;7.576;2023-03-01T02:47:05;18.70;;;15.10;;
10586;SDS011;5341;47.606;7.576;2023-03-01T02:49:33;20.20;;;15.43;;
10586;SDS011;5341;47.606;7.576;2023-03-01T02:52:07;19.90;;;15.90;;
10586;SDS011;5341;47.606;7.576;2023-03-01T02:54:48;19.50;;;15.57;;
10586;SDS011;5341;47.606;7.576;2023-03-01T02:57:22;18.95;;;15.73;;
10586;SDS011;5341;47.606;7.576;2023-03-01T02:59:52;18.95;;;15.57;;
10586;SDS011;5341;47.606;7.576;2023-03-01T03:02:24;17.95;;;15.18;;
10586;SDS011;5341;47.606;7.576;2023-03-01T03:05:14;18.90;;;15.75;;
10586;SDS011;5341;47.606;7.576;2023-03-01T03:07:45;16.52;;;14.45;;
10586;SDS011;5341;47.606;7.576;2023-03-01T03:10:16;21.85;;;16.42;;
10586;SDS011;5341;47.606;7.576;2023-03-01T03:12:48;20.08;;;15.52;;
10586;SDS011;5341;47.606;7.576;2023-03-01T03:15:19;19.45;;;16.17;;
10586;SDS011;5341;47.606;7.576;2023-03-01T03:17:48;17.85;;;15.77;;
10586;SDS011;5341;47.606;7.576;2023-03-01T03:20:17;21.13;;;17.23;;
10586;SDS011;5341;47.606;7.576;2023-03-01T03:22:53;17.58;;;15.07;;
10586;SDS011;5341;47.606;7.576;2023-03-01T03:25:22;18.25;;;15.43;;
10586;SDS011;5341;47.606;7.576;2023-03-01T03:27:52;18.35;;;15.43;;
10586;SDS011;5341;47.606;7.576;2023-03-01T03:30:28;18.08;;;14.73;;
10586;SDS011;5341;47.606;7.576;2023-03-01T03:32:59;20.40;;;14.85;;
10586;SDS011;5341;47.606;7.576;2023-03-01T03:35:31;19.25;;;15.85;;
10586;SDS011;5341;47.606;7.576;2023-03-01T03:38:00;17.63;;;14.55;;
10586;SDS011;5341;47.606;7.576;2023-03-01T03:40:36;18.83;;;15.00;;
10586;SDS011;5341;47.606;7.576;2023-03-01T03:43:08;18.05;;;15.50;;
10586;SDS011;5341;47.606;7.576;2023-03-01T03:45:40;17.70;;;15.57;;
10586;SDS011;5341;47.606;7.576;2023-03-01T03:48:11;19.55;;;15.05;;
10586;SDS011;5341;47.606;7.576;2023-03-01T03:50:41;18.02;;;14.93;;
10586;SDS011;5341;47.606;7.576;2023-03-01T03:53:14;19.35;;;15.63;;
10586;SDS011;5341;47.606;7.576;2023-03-01T03:55:44;18.02;;;14.52;;
10586;SDS011;5341;47.606;7.576;2023-03-01T03:58:14;18.85;;;14.95;;
10586;SDS011;5341;47.606;7.576;2023-03-01T04:00:56;18.17;;;15.48;;
10586;SDS011;5341;47.606;7.576;2023-03-01T04:03:25;18.08;;;15.48;;
10586;SDS011;5341;47.606;7.576;2023-03-01T04:05:53;16.60;;;14.88;;
10586;SDS011;5341;47.606;7.576;2023-03-01T04:08:24;19.60;;;15.40;;
10586;SDS011;5341;47.606;7.576;2023-03-01T04:10:56;19.33;;;15.23;;
10586;SDS011;5341;47.606;7.576;2023-03-01T04:13:46;19.27;;;15.55;;
10586;SDS011;5341;47.606;7.576;2023-03-01T04:16:15;18.85;;;14.63;;
10586;SDS011;5341;47.606;7.576;2023-03-01T04:18:43;18.92;;;15.10;;
10586;SDS011;5341;47.606;7.576;2023-03-01T04:21:17;17.58;;;14.93;;
10586;SDS011;5341;47.606;7.576;2023-03-01T04:23:45;18.67;;;15.38;;
10586;SDS011;5341;47.606;7.576;2023-03-01T04:26:14;16.70;;;14.45;;
10586;SDS011;5341;47.606;7.576;2023-03-01T04:28:43;17.00;;;14.65;;
10586;SDS011;5341;47.606;7.576;2023-03-01T04:31:12;17.85;;;14.30;;
10586;SDS011;5341;47.606;7.576;2023-03-01T04:33:47;18.20;;;14.50;;
10586;SDS011;5341;47.606;7.576;2023-03-01T04:36:18;17.98;;;15.00;;
10586;SDS011;5341;47.606;7.576;2023-03-01T04:38:51;17.23;;;14.45;;
10586;SDS011;5341;47.606;7.576;2023-03-01T04:41:19;17.05;;;14.55;;
10586;SDS011;5341;47.606;7.576;2023-03-01T04:43:50;16.40;;;14.20;;
10586;SDS011;5341;47.606;7.576;2023-03-01T04:46:18;17.50;;;14.20;;
10586;SDS011;5341;47.606;7.576;2023-03-01T04:48:50;18.20;;;14.68;;
10586;SDS011;5341;47.606;7.576;2023-03-01T04:51:24;17.20;;;14.10;;
10586;SDS011;5341;47.606;7.576;2023-03-01T04:54:10;18.98;;;14.27;;
10586;SDS011;5341;47.606;7.576;2023-03-01T04:56:38;18.10;;;14.85;;
10586;SDS011;5341;47.606;7.576;2023-03-01T04:59:05;17.25;;;13.88;;
10586;SDS011;5341;47.606;7.576;2023-03-01T05:01:33;17.45;;;14.23;;
10586;SDS011;5341;47.606;7.576;2023-03-01T05:04:05;16.48;;;13.63;;
10586;SDS011;5341;47.606;7.576;2023-03-01T05:06:38;17.67;;;14.73;;
10586;SDS011;5341;47.606;7.576;2023-03-01T05:09:07;17.77;;;13.98;;
10586;SDS011;5341;47.606;7.576;2023-03-01T05:11:37;17.00;;;13.45;;
10586;SDS011;5341;47.606;7.576;2023-03-01T05:14:08;16.55;;;13.10;;
10586;SDS011;5341;47.606;7.576;2023-03-01T05:16:36;16.50;;;14.02;;
10586;SDS011;5341;47.606;7.576;2023-03-01T05:19:06;17.95;;;14.73;;
10586;SDS011;5341;47.606;7.576;2023-03-01T05:21:40;18.92;;;14.32;;
10586;SDS011;5341;47.606;7.576;2023-03-01T05:24:22;18.13;;;14.68;;
10586;SDS011;5341;47.606;7.576;2023-03-01T05:26:51;19.55;;;14.90;;
10586;SDS011;5341;47.606;7.576;2023-03-01T05:29:19;23.50;;;15.38;;
10586;SDS011;5341;47.606;7.576;2023-03-01T05:31:51;18.80;;;14.95;;
10586;SDS011;5341;47.606;7.576;2023-03-01T05:34:24;20.52;;;15.32;;
10586;SDS011;5341;47.606;7.576;2023-03-01T05:36:52;20.63;;;14.85;;
10586;SDS011;5341;47.606;7.576;2023-03-01T05:39:20;18.10;;;15.05;;
10586;SDS011;5341;47.606;7.576;2023-03-01T05:41:51;18.33;;;14.90;;
10586;SDS011;5341;47.606;7.576;2023-03-01T05:44:19;18.40;;;14.25;;
10586;SDS011;5341;47.606;7.576;2023-03-01T05:46:48;18.17;;;14.45;;
10586;SDS011;5341;47.606;7.576;2023-03-01T05:49:17;19.90;;;14.88;;
10586;SDS011;5341;47.606;7.576;2023-03-01T05:51:48;17.25;;;13.80;;
10586;SDS011;5341;47.606;7.576;2023-03-01T05:54:18;16.17;;;13.95;;
10586;SDS011;5341;47.606;7.576;2023-03-01T05:56:45;20.92;;;15.23;;
10586;SDS011;5341;47.606;7.576;2023-03-01T05:59:13;19.60;;;15.30;;
10586;SDS011;5341;47.606;7.576;2023-03-01T06:01:41;18.48;;;14.85;;
10586;SDS011;5341;47.606;7.576;2023-03-01T06:04:09;17.70;;;14.15;;
10586;SDS011;5341;47.606;7.576;2023-03-01T06:06:37;18.33;;;14.77;;
10586;SDS011;5341;47.606;7.576;2023-03-01T06:09:06;17.90;;;14.23;;
10586;SDS011;5341;47.606;7.576;2023-03-01T06:11:35;17.92;;;14.55;;
10586;SDS011;5341;47.606;7.576;2023-03-01T06:14:03;17.70;;;14.50;;
10586;SDS011;5341;47.606;7.576;2023-03-01T06:16:32;18.08;;;13.93;;
10586;SDS011;5341;47.606;7.576;2023-03-01T06:19:00;18.70;;;15.10;;
10586;SDS011;5341;47.606;7.576;2023-03-01T06:21:27;16.85;;;14.18;;
10586;SDS011;5341;47.606;7.576;2023-03-01T06:23:56;18.88;;;14.50;;
10586;SDS011;5341;47.606;7.576;2023-03-01T06:26:25;18.55;;;14.43;;
10586;SDS011;5341;47.606;7.576;2023-03-01T06:28:53;16.35;;;13.65;;
10586;SDS011;5341;47.606;7.576;2023-03-01T06:31:20;16.90;;;14.10;;
10586;SDS011;5341;47.606;7.576;2023-03-01T06:33:47;16.08;;;13.88;;
10586;SDS011;5341;47.606;7.576;2023-03-01T06:36:15;17.90;;;14.82;;
10586;SDS011;5341;47.606;7.576;2023-03-01T06:38:44;17.58;;;14.48;;
10586;SDS011;5341;47.606;7.576;2023-03-01T06:41:11;16.60;;;14.23;;
10586;SDS011;5341;47.606;7.576;2023-03-01T06:43:40;17.92;;;14.75;;
10586;SDS011;5341;47.606;7.576;2023-03-01T06:46:07;18.85;;;15.02;;
10586;SDS011;5341;47.606;7.576;2023-03-01T06:48:34;18.88;;;15.27;;
10586;SDS011;5341;47.606;7.576;2023-03-01T06:51:02;19.25;;;14.95;;
10586;SDS011;5341;47.606;7.576;2023-03-01T06:53:30;17.63;;;14.38;;
10586;SDS011;5341;47.606;7.576;2023-03-01T06:56:03;18.50;;;14.80;;
10586;SDS011;5341;47.606;7.576;2023-03-01T06:58:31;17.38;;;13.68;;
10586;SDS011;5341;47.606;7.576;2023-03-01T07:03:30;17.95;;;14.52;;
10586;SDS011;5341;47.606;7.576;2023-03-01T07:06:04;16.75;;;13.95;;
10586;SDS011;5341;47.606;7.576;2023-03-01T07:08:32;20.45;;;14.38;;
10586;SDS011;5341;47.606;7.576;2023-03-01T07:10:59;19.73;;;15.00;;
10586;SDS011;5341;47.606;7.576;2023-03-01T07:13:30;17.10;;;14.48;;
10586;SDS011;5341;47.606;7.576;2023-03-01T07:15:58;17.23;;;14.05;;
10586;SDS011;5341;47.606;7.576;2023-03-01T07:18:28;17.52;;;14.10;;
10586;SDS011;5341;47.606;7.576;2023-03-01T07:20:57;21.58;;;14.32;;
10586;SDS011;5341;47.606;7.576;2023-03-01T07:23:24;17.27;;;14.38;;
10586;SDS011;5341;47.606;7.576;2023-03-01T07:25:52;17.08;;;13.82;;
10586;SDS011;5341;47.606;7.576;2023-03-01T07:28:20;18.00;;;14.43;;
10586;SDS011;5341;47.606;7.576;2023-03-01T07:30:51;16.95;;;14.02;;
10586;SDS011;5341;47.606;7.576;2023-03-01T07:33:19;19.13;;;14.73;;
10586;SDS011;5341;47.606;7.576;2023-03-01T07:35:46;18.25;;;14.50;;
10586;SDS011;5341;47.606;7.576;2023-03-01T07:38:24;20.33;;;15.40;;
10586;SDS011;5341;47.606;7.576;2023-03-01T07:40:52;19.48;;;15.50;;
10586;SDS011;5341;47.606;7.576;2023-03-01T07:43:19;17.27;;;15.10;;
10586;SDS011;5341;47.606;7.576;2023-03-01T07:45:47;19.65;;;15.27;;
10586;SDS011;5341;47.606;7.576;2023-03-01T07:48:15;17.88;;;15.02;;
10586;SDS011;5341;47.606;7.576;2023-03-01T07:50:44;18.80;;;15.35;;
10586;SDS011;5341;47.606;7.576;2023-03-01T07:53:11;18.80;;;15.57;;
10586;SDS011;5341;47.606;7.576;2023-03-01T07:55:40;18.60;;;15.40;;
10586;SDS011;5341;47.606;7.576;2023-03-01T07:58:07;18.42;;;15.05;;
10586;SDS011;5341;47.606;7.576;2023-03-01T08:00:35;20.88;;;15.10;;
10586;SDS011;5341;47.606;7.576;2023-03-01T08:03:07;17.30;;;14.57;;
10586;SDS011;5341;47.606;7.576;2023-03-01T08:05:36;18.58;;;15.05;;
10586;SDS011;5341;47.606;7.576;2023-03-01T08:08:04;18.08;;;14.25;;
10586;SDS011;5341;47.606;7.576;2023-03-01T08:10:32;17.88;;;13.68;;
10586;SDS011;5341;47.606;7.576;2023-03-01T08:13:01;17.73;;;14.20;;
10586;SDS011;5341;47.606;7.576;2023-03-01T08:15:29;17.90;;;15.25;;
10586;SDS011;5341;47.606;7.576;2023-03-01T08:17:59;18.52;;;15.20;;
10586;SDS011;5341;47.606;7.576;2023-03-01T08:20:27;20.23;;;15.52;;
10586;SDS011;5341;47.606;7.576;2023-03-01T08:22:55;18.15;;;14.77;;
10586;SDS011;5341;47.606;7.576;2023-03-01T08:25:25;19.40;;;15.00;;
10586;SDS011;5341;47.606;7.576;2023-03-01T08:27:53;17.02;;;14.50;;
10586;SDS011;5341;47.606;7.576;2023-03-01T08:30:22;17.02;;;14.68;;
10586;SDS011;5341;47.606;7.576;2023-03-01T08:32:50;20.27;;;15.50;;
10586;SDS011;5341;47.606;7.576;2023-03-01T08:35:18;18.63;;;14.95;;
10586;SDS011;5341;47.606;7.576;2023-03-01T08:37:46;21.92;;;16.08;;
10586;SDS011;5341;47.606;7.576;2023-03-01T08:40:19;18.63;;;14.95;;
10586;SDS011;5341;47.606;7.576;2023-03-01T08:42:47;21.45;;;16.13;;
10586;SDS011;5341;47.606;7.576;2023-03-01T08:45:15;19.55;;;15.60;;
10586;SDS011;5341;47.606;7.576;2023-03-01T08:47:45;23.35;;;16.15;;
10586;SDS011;5341;47.606;7.576;2023-03-01T08:50:12;18.92;;;16.15;;
10586;SDS011;5341;47.606;7.576;2023-03-01T08:52:40;20.38;;;15.77;;
10586;SDS011;5341;47.606;7.576;2023-03-01T08:55:08;18.40;;;15.20;;
10586;SDS011;5341;47.606;7.576;2023-03-01T08:57:36;18.90;;;15.52;;
10586;SDS011;5341;47.606;7.576;2023-03-01T09:00:03;20.60;;;15.32;;
10586;SDS011;5341;47.606;7.576;2023-03-01T09:02:34;20.27;;;14.98;;
10586;SDS011;5341;47.606;7.576;2023-03-01T09:05:04;18.33;;;14.00;;
10586;SDS011;5341;47.606;7.576;2023-03-01T09:07:33;20.42;;;15.23;;
10586;SDS011;5341;47.606;7.576;2023-03-01T09:10:02;20.83;;;15.23;;
10586;SDS011;5341;47.606;7.576;2023-03-01T09:12:30;21.05;;;15.65;;
10586;SDS011;5341;47.606;7.576;2023-03-01T09:14:59;16.83;;;14.75;;
10586;SDS011;5341;47.606;7.576;2023-03-01T09:17:26;19.65;;;15.65;;
10586;SDS011;5341;47.606;7.576;2023-03-01T09:19:54;16.73;;;14.70;;
10586;SDS011;5341;47.606;7.576;2023-03-01T09:22:23;19.92;;;15.75;;
10586;SDS011;5341;47.606;7.576;2023-03-01T09:24:50;19.02;;;14.90;;
10586;SDS011;5341;47.606;7.576;2023-03-01T09:27:18;18.95;;;15.25;;
10586;SDS011;5341;47.606;7.576;2023-03-01T09:29:46;17.85;;;15.07;;
10586;SDS011;5341;47.606;7.576;2023-03-01T09:32:14;19.05;;;14.95;;
10586;SDS011;5341;47.606;7.576;2023-03-01T09:34:42;19.00;;;14.90;;
10586;SDS011;5341;47.606;7.576;2023-03-01T09:37:33;16.50;;;13.90;;
10586;SDS011;5341;47.606;7.576;2023-03-01T09:40:02;17.63;;;15.45;;
10586;SDS011;5341;47.606;7.576;2023-03-01T09:42:32;17.13;;;13.93;;
10586;SDS011;5341;47.606;7.576;2023-03-01T09:45:02;17.35;;;14.63;;
10586;SDS011;5341;47.606;7.576;2023-03-01T09:47:33;19.55;;;14.82;;
10586;SDS011;5341;47.606;7.576;2023-03-01T09:50:04;17.50;;;14.80;;
10586;SDS011;5341;47.606;7.576;2023-03-01T09:52:40;20.73;;;15.65;;
10586;SDS011;5341;47.606;7.576;2023-03-01T09:55:11;17.00;;;14.20;;
10586;SDS011;5341;47.606;7.576;2023-03-01T09:57:42;16.77;;;14.50;;
10586;SDS011;5341;47.606;7.576;2023-03-01T10:00:24;19.40;;;15.02;;
10586;SDS011;5341;47.606;7.576;2023-03-01T10:02:59;16.95;;;14.40;;
10586;SDS011;5341;47.606;7.576;2023-03-01T10:05:41;17.25;;;15.05;;
10586;SDS011;5341;47.606;7.576;2023-03-01T10:08:28;18.83;;;15.73;;
10586;SDS011;5341;47.606;7.576;2023-03-01T10:11:02;18.42;;;14.55;;
10586;SDS011;5341;47.606;7.576;2023-03-01T10:13:34;18.88;;;15.80;;
10586;SDS011;5341;47.606;7.576;2023-03-01T10:16:11;18.50;;;14.50;;
10586;SDS011;5341;47.606;7.576;2023-03-01T10:18:41;17.38;;;14.65;;
10586;SDS011;5341;47.606;7.576;2023-03-01T10:21:20;19.52;;;15.40;;
10586;SDS011;5341;47.606;7.576;2023-03-01T10:23:51;23.27;;;17.95;;
10586;SDS011;5341;47.606;7.576;2023-03-01T10:26:27;28.33;;;18.33;;
10586;SDS011;5341;47.606;7.576;2023-03-01T10:29:06;36.33;;;25.17;;
10586;SDS011;5341;47.606;7.576;2023-03-01T10:31:37;39.88;;;25.80;;
10586;SDS011;5341;47.606;7.576;2023-03-01T10:34:09;32.75;;;23.15;;
10586;SDS011;5341;47.606;7.576;2023-03-01T10:36:39;31.73;;;23.48;;
10586;SDS011;5341;47.606;7.576;2023-03-01T10:39:13;32.70;;;21.85;;
10586;SDS011;5341;47.606;7.576;2023-03-01T10:41:53;28.60;;;21.27;;
10586;SDS011;5341;47.606;7.576;2023-03-01T10:47:14;25.65;;;20.20;;
10586;SDS011;5341;47.606;7.576;2023-03-01T10:49:56;28.67;;;21.75;;
10586;SDS011;5341;47.606;7.576;2023-03-01T10:52:30;29.55;;;21.27;;
10586;SDS011;5341;47.606;7.576;2023-03-01T10:55:02;25.65;;;19.30;;
10586;SDS011;5341;47.606;7.576;2023-03-01T10:57:47;26.70;;;20.33;;
10586;SDS011;5341;47.606;7.576;2023-03-01T11:00:18;26.48;;;20.67;;
10586;SDS011;5341;47.606;7.576;2023-03-01T11:02:48;28.25;;;20.60;;
10586;SDS011;5341;47.606;7.576;2023-03-01T11:05:19;27.27;;;20.30;;
10586;SDS011;5341;47.606;7.576;2023-03-01T11:07:51;30.60;;;20.35;;
10586;SDS011;5341;47.606;7.576;2023-03-01T11:10:23;25.98;;;20.15;;
10586;SDS011;5341;47.606;7.576;2023-03-01T11:12:52;24.98;;;19.80;;
10586;SDS011;5341;47.606;7.576;2023-03-01T11:15:25;24.92;;;19.63;;
10586;SDS011;5341;47.606;7.576;2023-03-01T11:17:54;24.17;;;18.90;;
10586;SDS011;5341;47.606;7.576;2023-03-01T11:20:25;59.38;;;38.08;;
10586;SDS011;5341;47.606;7.576;2023-03-01T11:22:56;27.75;;;20.73;;
10586;SDS011;5341;47.606;7.576;2023-03-01T11:25:31;26.33;;;20.50;;
10586;SDS011;5341;47.606;7.576;2023-03-01T11:28:03;24.73;;;20.20;;
10586;SDS011;5341;47.606;7.576;2023-03-01T11:30:33;27.08;;;19.90;;
10586;SDS011;5341;47.606;7.576;2023-03-01T11:33:10;29.33;;;20.20;;
10586;SDS011;5341;47.606;7.576;2023-03-01T11:35:45;24.33;;;19.00;;
10586;SDS011;5341;47.606;7.576;2023-03-01T11:38:21;27.60;;;19.40;;
10586;SDS011;5341;47.606;7.576;2023-03-01T11:40:54;24.15;;;18.88;;
10586;SDS011;5341;47.606;7.576;2023-03-01T11:43:31;26.13;;;20.42;;
10586;SDS011;5341;47.606;7.576;2023-03-01T11:46:20;24.20;;;18.42;;
10586;SDS011;5341;47.606;7.576;2023-03-01T11:49:10;22.98;;;18.48;;
10586;SDS011;5341;47.606;7.576;2023-03-01T11:51:48;21.40;;;17.25;;
10586;SDS011;5341;47.606;7.576;2023-03-01T11:54:28;21.77;;;17.38;;
10586;SDS011;5341;47.606;7.576;2023-03-01T11:57:09;24.30;;;17.65;;
10586;SDS011;5341;47.606;7.576;2023-03-01T12:03:01;20.23;;;16.52;;
10586;SDS011;5341;47.606;7.576;2023-03-01T12:05:51;21.38;;;17.05;;
10586;SDS011;5341;47.606;7.576;2023-03-01T12:08:33;21.52;;;16.75;;
10586;SDS011;5341;47.606;7.576;2023-03-01T12:11:13;20.02;;;16.15;;
10586;SDS011;5341;47.606;7.576;2023-03-01T12:17:01;27.52;;;18.08;;
10586;SDS011;5341;47.606;7.576;2023-03-01T12:19:54;24.35;;;17.83;;
10586;SDS011;5341;47.606;7.576;2023-03-01T12:22:35;23.08;;;18.38;;
10586;SDS011;5341;47.606;7.576;2023-03-01T12:25:21;22.85;;;17.92;;
10586;SDS011;5341;47.606;7.576;2023-03-01T12:34:14;22.85;;;17.25;;
10586;SDS011;5341;47.606;7.576;2023-03-01T12:36:56;24.52;;;19.10;;
10586;SDS011;5341;47.606;7.576;2023-03-01T12:39:41;25.83;;;20.50;;
10586;SDS011;5341;47.606;7.576;2023-03-01T12:42:21;21.65;;;17.25;;
10586;SDS011;5341;47.606;7.576;2023-03-01T12:44:57;20.05;;;17.40;;
10586;SDS011;5341;47.606;7.576;2023-03-01T12:47:45;22.80;;;18.23;;
10586;SDS011;5341;47.606;7.576;2023-03-01T12:50:29;22.38;;;16.55;;
10586;SDS011;5341;47.606;7.576;2023-03-01T12:53:07;20.92;;;16.90;;
10586;SDS011;5341;47.606;7.576;2023-03-01T12:55:45;24.00;;;18.50;;
10586;SDS011;5341;47.606;7.576;2023-03-01T12:58:17;25.88;;;18.92;;
10586;SDS011;5341;47.606;7.576;2023-03-01T13:00:57;21.10;;;17.67;;
10586;SDS011;5341;47.606;7.576;2023-03-01T13:03:33;20.55;;;17.38;;
10586;SDS011;5341;47.606;7.576;2023-03-01T13:06:25;20.10;;;16.70;;
10586;SDS011;5341;47.606;7.576;2023-03-01T13:09:04;24.02;;;19.25;;
10586;SDS011;5341;47.606;7.576;2023-03-01T13:11:41;21.90;;;18.23;;
10586;SDS011;5341;47.606;7.576;2023-03-01T13:17:07;18.80;;;16.55;;
10586;SDS011;5341;47.606;7.576;2023-03-01T13:19:57;25.95;;;18.85;;
10586;SDS011;5341;47.606;7.576;2023-03-01T13:22:28;21.55;;;17.48;;
10586;SDS011;5341;47.606;7.576;2023-03-01T13:25:02;21.70;;;17.67;;
10586;SDS011;5341;47.606;7.576;2023-03-01T13:27:40;21.63;;;17.45;;
10586;SDS011;5341;47.606;7.576;2023-03-01T13:39:29;21.73;;;18.08;;
10586;SDS011;5341;47.606;7.576;2023-03-01T13:41:59;21.88;;;17.15;;
10586;SDS011;5341;47.606;7.576;2023-03-01T13:44:29;21.58;;;17.58;;
10586;SDS011;5341;47.606;7.576;2023-03-01T13:46:59;19.60;;;16.05;;
10586;SDS011;5341;47.606;7.576;2023-03-01T13:49:40;19.67;;;16.73;;
10586;SDS011;5341;47.606;7.576;2023-03-01T13:52:21;20.70;;;17.08;;
10586;SDS011;5341;47.606;7.576;2023-03-01T13:55:16;21.27;;;16.02;;
10586;SDS011;5341;47.606;7.576;2023-03-01T13:57:46;19.23;;;15.88;;
10586;SDS011;5341;47.606;7.576;2023-03-01T14:00:26;20.20;;;16.67;;
10586;SDS011;5341;47.606;7.576;2023-03-01T14:03:01;25.20;;;18.70;;
10586;SDS011;5341;47.606;7.576;2023-03-01T14:05:30;18.05;;;15.75;;
10586;SDS011;5341;47.606;7.576;2023-03-01T14:07:58;19.40;;;16.38;;
10586;SDS011;5341;47.606;7.576;2023-03-01T14:10:28;19.48;;;16.88;;
10586;SDS011;5341;47.606;7.576;2023-03-01T14:13:13;17.33;;;15.52;;
10586;SDS011;5341;47.606;7.576;2023-03-01T14:15:56;18.17;;;15.23;;
10586;SDS011;5341;47.606;7.576;2023-03-01T14:18:42;17.45;;;15.43;;
10586;SDS011;5341;47.606;7.576;2023-03-01T14:21:20;19.90;;;16.48;;
10586;SDS011;5341;47.606;7.576;2023-03-01T14:23:48;20.10;;;16.40;;
10586;SDS011;5341;47.606;7.576;2023-03-01T14:26:21;21.77;;;16.95;;
10586;SDS011;5341;47.606;7.576;2023-03-01T14:28:50;17.92;;;15.70;;
10586;SDS011;5341;47.606;7.576;2023-03-01T14:31:36;17.73;;;15.18;;
10586;SDS011;5341;47.606;7.576;2023-03-01T14:34:05;19.15;;;14.68;;
10586;SDS011;5341;47.606;7.576;2023-03-01T14:36:33;20.45;;;16.42;;
10586;SDS011;5341;47.606;7.576;2023-03-01T14:39:01;19.83;;;15.45;;
10586;SDS011;5341;47.606;7.576;2023-03-01T14:41:34;17.48;;;15.32;;
10586;SDS011;5341;47.606;7.576;2023-03-01T14:44:04;18.77;;;15.45;;
10586;SDS011;5341;47.606;7.576;2023-03-01T14:46:40;17.45;;;15.52;;
10586;SDS011;5341;47.606;7.576;2023-03-01T14:49:10;21.20;;;17.33;;
10586;SDS011;5341;47.606;7.576;2023-03-01T14:51:48;20.60;;;16.80;;
10586;SDS011;5341;47.606;7.576;2023-03-01T14:54:21;17.92;;;14.98;;
10586;SDS011;5341;47.606;7.576;2023-03-01T14:56:54;23.85;;;16.92;;
10586;SDS011;5341;47.606;7.576;2023-03-01T14:59:33;19.27;;;15.88;;
10586;SDS011;5341;47.606;7.576;2023-03-01T15:02:00;22.10;;;16.85;;
10586;SDS011;5341;47.606;7.576;2023-03-01T15:04:28;20.33;;;15.65;;
10586;SDS011;5341;47.606;7.576;2023-03-01T15:06:59;21.67;;;16.75;;
10586;SDS011;5341;47.606;7.576;2023-03-01T15:09:36;21.30;;;16.00;;
10586;SDS011;5341;47.606;7.576;2023-03-01T15:15:21;19.85;;;16.25;;
10586;SDS011;5341;47.606;7.576;2023-03-01T15:18:00;22.52;;;15.98;;
10586;SDS011;5341;47.606;7.576;2023-03-01T15:20:40;21.77;;;17.10;;
10586;SDS011;5341;47.606;7.576;2023-03-01T15:23:16;20.80;;;16.35;;
10586;SDS011;5341;47.606;7.576;2023-03-01T15:25:47;21.95;;;17.48;;
10586;SDS011;5341;47.606;7.576;2023-03-01T15:28:25;20.88;;;16.70;;
10586;SDS011;5341;47.606;7.576;2023-03-01T15:30:57;21.67;;;16.95;;
10586;SDS011;5341;47.606;7.576;2023-03-01T15:33:31;22.60;;;18.17;;
10586;SDS011;5341;47.606;7.576;2023-03-01T15:36:03;19.38;;;16.20;;